sensor_id;sensor_type;location;lat;lon;timestamp;P1;durP1;ratioP1;P2;durP2;ratioP2
69937;SDS011;57248;47.320;15.998;2023-04-20T00:00:58;5.87;;;2.53;;
69937;SDS011;57248;47.320;15.998;2023-04-20T00:03:30;5.85;;;2.20;;
69937;SDS011;57248;47.320;15.998;2023-04-20T00:06:03;6.47;;;2.28;;
69937;SDS011;57248;47.320;15.998;2023-04-20T00:08:36;5.65;;;2.40;;
69937;SDS011;57248;47.320;15.998;2023-04-20T00:11:08;5.68;;;1.98;;
69937;SDS011;57248;47.320;15.998;2023-04-20T00:13:40;6.63;;;2.20;;
69937;SDS011;57248;47.320;15.998;2023-04-20T00:16:12;5.50;;;2.05;;
69937;SDS011;57248;47.320;15.998;2023-04-20T00:18:44;7.95;;;3.22;;
69937;SDS011;57248;47.320;15.998;2023-04-20T00:21:17;5.72;;;2.30;;
69937;SDS011;57248;47.320;15.998;2023-04-20T00:23:54;5.20;;;2.30;;
69937;SDS011;57248;47.320;15.998;2023-04-20T00:26:26;5.50;;;2.00;;
69937;SDS011;57248;47.320;15.998;2023-04-20T00:28:58;4.68;;;2.03;;
69937;SDS011;57248;47.320;15.998;2023-04-20T00:31:30;5.47;;;2.28;;
69937;SDS011;57248;47.320;15.998;2023-04-20T00:34:02;5.70;;;2.25;;
69937;SDS011;57248;47.320;15.998;2023-04-20T00:36:27;4.83;;;2.10;;
69937;SDS011;57248;47.320;15.998;2023-04-20T00:39:00;5.32;;;2.20;;
69937;SDS011;57248;47.320;15.998;2023-04-20T00:41:33;5.13;;;2.00;;
69937;SDS011;57248;47.320;15.998;2023-04-20T00:44:05;6.60;;;2.50;;
69937;SDS011;57248;47.320;15.998;2023-04-20T00:46:38;6.57;;;2.30;;
69937;SDS011;57248;47.320;15.998;2023-04-20T00:49:11;5.72;;;2.13;;
69937;SDS011;57248;47.320;15.998;2023-04-20T00:51:43;5.70;;;2.17;;
69937;SDS011;57248;47.320;15.998;2023-04-20T00:54:15;5.63;;;2.30;;
69937;SDS011;57248;47.320;15.998;2023-04-20T00:56:47;6.20;;;2.27;;
69937;SDS011;57248;47.320;15.998;2023-04-20T00:59:20;8.10;;;2.40;;
69937;SDS011;57248;47.320;15.998;2023-04-20T01:02:06;5.68;;;2.20;;
69937;SDS011;57248;47.320;15.998;2023-04-20T01:04:40;5.68;;;1.90;;
69937;SDS011;57248;47.320;15.998;2023-04-20T01:07:12;5.85;;;2.00;;
69937;SDS011;57248;47.320;15.998;2023-04-20T01:09:47;4.90;;;1.80;;
69937;SDS011;57248;47.320;15.998;2023-04-20T01:12:19;5.35;;;2.13;;
69937;SDS011;57248;47.320;15.998;2023-04-20T01:14:51;5.38;;;2.05;;
69937;SDS011;57248;47.320;15.998;2023-04-20T01:17:23;5.22;;;1.73;;
69937;SDS011;57248;47.320;15.998;2023-04-20T01:19:49;5.60;;;1.93;;
69937;SDS011;57248;47.320;15.998;2023-04-20T01:22:21;6.30;;;1.92;;
69937;SDS011;57248;47.320;15.998;2023-04-20T01:24:53;5.50;;;1.88;;
69937;SDS011;57248;47.320;15.998;2023-04-20T01:27:25;4.80;;;1.67;;
69937;SDS011;57248;47.320;15.998;2023-04-20T01:29:59;5.88;;;1.80;;
69937;SDS011;57248;47.320;15.998;2023-04-20T01:32:31;6.22;;;2.22;;
69937;SDS011;57248;47.320;15.998;2023-04-20T01:35:03;5.93;;;2.28;;
69937;SDS011;57248;47.320;15.998;2023-04-20T01:37:36;5.75;;;1.98;;
69937;SDS011;57248;47.320;15.998;2023-04-20T01:40:10;5.90;;;2.20;;
69937;SDS011;57248;47.320;15.998;2023-04-20T01:42:43;5.75;;;2.17;;
69937;SDS011;57248;47.320;15.998;2023-04-20T01:45:15;6.25;;;2.00;;
69937;SDS011;57248;47.320;15.998;2023-04-20T01:47:47;5.10;;;1.88;;
69937;SDS011;57248;47.320;15.998;2023-04-20T01:50:19;5.88;;;2.03;;
69937;SDS011;57248;47.320;15.998;2023-04-20T01:52:51;5.77;;;1.80;;
69937;SDS011;57248;47.320;15.998;2023-04-20T01:55:23;6.03;;;1.83;;
69937;SDS011;57248;47.320;15.998;2023-04-20T01:57:55;6.03;;;2.33;;
69937;SDS011;57248;47.320;15.998;2023-04-20T02:00:27;4.63;;;1.60;;
69937;SDS011;57248;47.320;15.998;2023-04-20T02:03:13;5.35;;;1.67;;
69937;SDS011;57248;47.320;15.998;2023-04-20T02:05:45;5.53;;;1.93;;
69937;SDS011;57248;47.320;15.998;2023-04-20T02:08:17;5.65;;;2.05;;
69937;SDS011;57248;47.320;15.998;2023-04-20T02:10:49;5.85;;;2.00;;
69937;SDS011;57248;47.320;15.998;2023-04-20T02:13:21;4.97;;;1.90;;
69937;SDS011;57248;47.320;15.998;2023-04-20T02:15:53;4.85;;;1.70;;
69937;SDS011;57248;47.320;15.998;2023-04-20T02:18:26;4.80;;;1.80;;
69937;SDS011;57248;47.320;15.998;2023-04-20T02:20:59;4.60;;;1.52;;
69937;SDS011;57248;47.320;15.998;2023-04-20T02:23:31;5.88;;;1.67;;
69937;SDS011;57248;47.320;15.998;2023-04-20T02:25:57;4.78;;;1.48;;
69937;SDS011;57248;47.320;15.998;2023-04-20T02:28:30;4.20;;;1.37;;
69937;SDS011;57248;47.320;15.998;2023-04-20T02:31:03;4.68;;;1.38;;
69937;SDS011;57248;47.320;15.998;2023-04-20T02:33:35;4.07;;;1.30;;
69937;SDS011;57248;47.320;15.998;2023-04-20T02:36:01;4.50;;;1.37;;
69937;SDS011;57248;47.320;15.998;2023-04-20T02:38:33;4.23;;;1.30;;
69937;SDS011;57248;47.320;15.998;2023-04-20T02:41:06;3.78;;;1.25;;
69937;SDS011;57248;47.320;15.998;2023-04-20T02:43:38;3.92;;;1.27;;
69937;SDS011;57248;47.320;15.998;2023-04-20T02:46:11;4.40;;;1.45;;
69937;SDS011;57248;47.320;15.998;2023-04-20T02:48:44;3.78;;;1.10;;
69937;SDS011;57248;47.320;15.998;2023-04-20T02:51:16;4.23;;;1.27;;
69937;SDS011;57248;47.320;15.998;2023-04-20T02:53:44;6.00;;;1.73;;
69937;SDS011;57248;47.320;15.998;2023-04-20T02:56:27;5.60;;;1.40;;
69937;SDS011;57248;47.320;15.998;2023-04-20T02:59:03;5.03;;;1.50;;
69937;SDS011;57248;47.320;15.998;2023-04-20T03:01:57;4.20;;;1.40;;
69937;SDS011;57248;47.320;15.998;2023-04-20T03:04:29;4.70;;;1.27;;
69937;SDS011;57248;47.320;15.998;2023-04-20T03:07:18;4.45;;;1.15;;
69937;SDS011;57248;47.320;15.998;2023-04-20T03:09:51;5.35;;;1.40;;
69937;SDS011;57248;47.320;15.998;2023-04-20T03:12:49;4.32;;;1.27;;
69937;SDS011;57248;47.320;15.998;2023-04-20T03:15:30;6.35;;;1.08;;
69937;SDS011;57248;47.320;15.998;2023-04-20T03:18:11;4.17;;;0.97;;
69937;SDS011;57248;47.320;15.998;2023-04-20T03:20:43;3.70;;;1.10;;
69937;SDS011;57248;47.320;15.998;2023-04-20T03:23:15;3.90;;;1.00;;
69937;SDS011;57248;47.320;15.998;2023-04-20T03:25:48;4.25;;;1.17;;
69937;SDS011;57248;47.320;15.998;2023-04-20T03:28:57;5.03;;;1.25;;
69937;SDS011;57248;47.320;15.998;2023-04-20T03:31:29;5.90;;;1.60;;
69937;SDS011;57248;47.320;15.998;2023-04-20T03:34:02;4.28;;;1.40;;
69937;SDS011;57248;47.320;15.998;2023-04-20T03:36:35;4.80;;;1.55;;
69937;SDS011;57248;47.320;15.998;2023-04-20T03:39:07;5.55;;;1.48;;
69937;SDS011;57248;47.320;15.998;2023-04-20T03:41:41;6.05;;;1.50;;
69937;SDS011;57248;47.320;15.998;2023-04-20T03:44:14;5.80;;;1.80;;
69937;SDS011;57248;47.320;15.998;2023-04-20T03:46:47;5.40;;;1.55;;
69937;SDS011;57248;47.320;15.998;2023-04-20T03:49:12;6.17;;;1.70;;
69937;SDS011;57248;47.320;15.998;2023-04-20T03:51:44;5.68;;;1.65;;
69937;SDS011;57248;47.320;15.998;2023-04-20T03:54:16;5.80;;;2.00;;
69937;SDS011;57248;47.320;15.998;2023-04-20T03:56:48;9.02;;;1.67;;
69937;SDS011;57248;47.320;15.998;2023-04-20T03:59:22;4.65;;;1.63;;
69937;SDS011;57248;47.320;15.998;2023-04-20T04:01:54;5.07;;;1.40;;
69937;SDS011;57248;47.320;15.998;2023-04-20T04:04:33;4.70;;;1.30;;
69937;SDS011;57248;47.320;15.998;2023-04-20T04:07:05;3.92;;;1.23;;
69937;SDS011;57248;47.320;15.998;2023-04-20T04:09:39;4.05;;;1.20;;
69937;SDS011;57248;47.320;15.998;2023-04-20T04:12:12;4.72;;;1.50;;
69937;SDS011;57248;47.320;15.998;2023-04-20T04:14:47;9.20;;;1.53;;
69937;SDS011;57248;47.320;15.998;2023-04-20T04:17:21;4.78;;;1.42;;
69937;SDS011;57248;47.320;15.998;2023-04-20T04:19:54;5.00;;;1.50;;
69937;SDS011;57248;47.320;15.998;2023-04-20T04:22:26;4.07;;;1.33;;
69937;SDS011;57248;47.320;15.998;2023-04-20T04:25:18;7.03;;;2.30;;
69937;SDS011;57248;47.320;15.998;2023-04-20T04:27:50;5.27;;;1.90;;
69937;SDS011;57248;47.320;15.998;2023-04-20T04:30:23;5.75;;;1.88;;
69937;SDS011;57248;47.320;15.998;2023-04-20T04:32:55;5.70;;;1.73;;
69937;SDS011;57248;47.320;15.998;2023-04-20T04:35:28;7.53;;;2.80;;
69937;SDS011;57248;47.320;15.998;2023-04-20T04:38:01;6.65;;;2.78;;
69937;SDS011;57248;47.320;15.998;2023-04-20T04:40:35;7.27;;;2.83;;
69937;SDS011;57248;47.320;15.998;2023-04-20T04:43:08;9.18;;;2.83;;
69937;SDS011;57248;47.320;15.998;2023-04-20T04:45:47;6.20;;;2.22;;
69937;SDS011;57248;47.320;15.998;2023-04-20T04:48:20;11.98;;;4.32;;
69937;SDS011;57248;47.320;15.998;2023-04-20T04:50:53;13.40;;;3.65;;
69937;SDS011;57248;47.320;15.998;2023-04-20T04:53:26;8.30;;;2.87;;
69937;SDS011;57248;47.320;15.998;2023-04-20T04:55:58;8.85;;;2.47;;
69937;SDS011;57248;47.320;15.998;2023-04-20T04:58:23;6.87;;;2.60;;
69937;SDS011;57248;47.320;15.998;2023-04-20T05:00:56;9.35;;;2.30;;
69937;SDS011;57248;47.320;15.998;2023-04-20T05:03:28;5.22;;;1.75;;
69937;SDS011;57248;47.320;15.998;2023-04-20T05:06:00;5.97;;;2.50;;
69937;SDS011;57248;47.320;15.998;2023-04-20T05:08:33;7.00;;;2.30;;
69937;SDS011;57248;47.320;15.998;2023-04-20T05:11:05;7.33;;;2.50;;
69937;SDS011;57248;47.320;15.998;2023-04-20T05:13:37;7.45;;;2.97;;
69937;SDS011;57248;47.320;15.998;2023-04-20T05:16:09;9.40;;;3.17;;
69937;SDS011;57248;47.320;15.998;2023-04-20T05:18:41;8.32;;;3.13;;
69937;SDS011;57248;47.320;15.998;2023-04-20T05:21:13;6.60;;;2.83;;
69937;SDS011;57248;47.320;15.998;2023-04-20T05:23:45;6.87;;;2.73;;
69937;SDS011;57248;47.320;15.998;2023-04-20T05:26:17;7.28;;;2.60;;
69937;SDS011;57248;47.320;15.998;2023-04-20T05:28:49;6.15;;;2.50;;
69937;SDS011;57248;47.320;15.998;2023-04-20T05:31:21;10.77;;;2.85;;
69937;SDS011;57248;47.320;15.998;2023-04-20T05:33:53;7.05;;;2.70;;
69937;SDS011;57248;47.320;15.998;2023-04-20T05:36:25;7.60;;;2.60;;
69937;SDS011;57248;47.320;15.998;2023-04-20T05:38:57;6.20;;;2.67;;
69937;SDS011;57248;47.320;15.998;2023-04-20T05:41:29;6.07;;;2.65;;
69937;SDS011;57248;47.320;15.998;2023-04-20T05:43:55;6.45;;;2.95;;
69937;SDS011;57248;47.320;15.998;2023-04-20T05:46:27;6.17;;;2.47;;
69937;SDS011;57248;47.320;15.998;2023-04-20T05:48:59;6.55;;;2.33;;
69937;SDS011;57248;47.320;15.998;2023-04-20T05:51:31;9.13;;;2.40;;
69937;SDS011;57248;47.320;15.998;2023-04-20T05:54:04;7.30;;;2.70;;
69937;SDS011;57248;47.320;15.998;2023-04-20T05:56:36;9.00;;;3.25;;
69937;SDS011;57248;47.320;15.998;2023-04-20T05:59:08;6.87;;;2.40;;
69937;SDS011;57248;47.320;15.998;2023-04-20T06:01:47;5.78;;;2.60;;
69937;SDS011;57248;47.320;15.998;2023-04-20T06:04:26;6.80;;;2.83;;
69937;SDS011;57248;47.320;15.998;2023-04-20T06:06:58;5.25;;;2.10;;
69937;SDS011;57248;47.320;15.998;2023-04-20T06:09:31;5.30;;;2.20;;
69937;SDS011;57248;47.320;15.998;2023-04-20T06:12:04;4.53;;;1.87;;
69937;SDS011;57248;47.320;15.998;2023-04-20T06:14:36;5.00;;;1.80;;
69937;SDS011;57248;47.320;15.998;2023-04-20T06:17:08;4.38;;;1.70;;
69937;SDS011;57248;47.320;15.998;2023-04-20T06:19:40;4.82;;;1.92;;
69937;SDS011;57248;47.320;15.998;2023-04-20T06:22:12;4.50;;;2.00;;
69937;SDS011;57248;47.320;15.998;2023-04-20T06:24:45;4.37;;;1.80;;
69937;SDS011;57248;47.320;15.998;2023-04-20T06:27:17;5.07;;;2.03;;
69937;SDS011;57248;47.320;15.998;2023-04-20T06:29:49;5.25;;;2.20;;
69937;SDS011;57248;47.320;15.998;2023-04-20T06:32:21;6.93;;;2.30;;
69937;SDS011;57248;47.320;15.998;2023-04-20T06:34:53;4.63;;;2.20;;
69937;SDS011;57248;47.320;15.998;2023-04-20T06:37:25;5.30;;;2.80;;
69937;SDS011;57248;47.320;15.998;2023-04-20T06:39:58;5.32;;;2.60;;
69937;SDS011;57248;47.320;15.998;2023-04-20T06:42:30;6.40;;;2.30;;
69937;SDS011;57248;47.320;15.998;2023-04-20T06:45:03;5.40;;;2.33;;
69937;SDS011;57248;47.320;15.998;2023-04-20T06:47:36;5.10;;;2.50;;
69937;SDS011;57248;47.320;15.998;2023-04-20T06:50:03;5.50;;;2.50;;
69937;SDS011;57248;47.320;15.998;2023-04-20T06:52:39;5.75;;;2.33;;
69937;SDS011;57248;47.320;15.998;2023-04-20T06:55:11;6.25;;;2.50;;
69937;SDS011;57248;47.320;15.998;2023-04-20T06:57:43;5.63;;;2.50;;
69937;SDS011;57248;47.320;15.998;2023-04-20T07:00:22;6.00;;;2.40;;
69937;SDS011;57248;47.320;15.998;2023-04-20T07:02:54;7.15;;;2.70;;
69937;SDS011;57248;47.320;15.998;2023-04-20T07:05:34;5.93;;;2.67;;
69937;SDS011;57248;47.320;15.998;2023-04-20T07:08:06;5.40;;;2.80;;
69937;SDS011;57248;47.320;15.998;2023-04-20T07:10:39;6.43;;;2.77;;
69937;SDS011;57248;47.320;15.998;2023-04-20T07:13:11;5.20;;;2.45;;
69937;SDS011;57248;47.320;15.998;2023-04-20T07:15:43;5.80;;;2.97;;
69937;SDS011;57248;47.320;15.998;2023-04-20T07:18:16;5.88;;;2.78;;
69937;SDS011;57248;47.320;15.998;2023-04-20T07:20:49;4.22;;;2.42;;
69937;SDS011;57248;47.320;15.998;2023-04-20T07:23:22;5.73;;;2.83;;
69937;SDS011;57248;47.320;15.998;2023-04-20T07:25:55;5.18;;;2.95;;
69937;SDS011;57248;47.320;15.998;2023-04-20T07:28:27;4.60;;;2.50;;
69937;SDS011;57248;47.320;15.998;2023-04-20T07:30:59;4.75;;;2.80;;
69937;SDS011;57248;47.320;15.998;2023-04-20T07:33:31;4.15;;;2.60;;
69937;SDS011;57248;47.320;15.998;2023-04-20T07:36:06;6.20;;;3.50;;
69937;SDS011;57248;47.320;15.998;2023-04-20T07:38:38;4.45;;;3.17;;
69937;SDS011;57248;47.320;15.998;2023-04-20T07:41:10;5.47;;;3.70;;
69937;SDS011;57248;47.320;15.998;2023-04-20T07:43:42;4.75;;;3.00;;
69937;SDS011;57248;47.320;15.998;2023-04-20T07:46:18;5.57;;;4.10;;
69937;SDS011;57248;47.320;15.998;2023-04-20T07:48:54;5.90;;;3.77;;
69937;SDS011;57248;47.320;15.998;2023-04-20T07:51:26;4.70;;;4.00;;
69937;SDS011;57248;47.320;15.998;2023-04-20T07:54:00;5.03;;;4.53;;
69937;SDS011;57248;47.320;15.998;2023-04-20T07:56:32;5.30;;;4.40;;
69937;SDS011;57248;47.320;15.998;2023-04-20T07:59:04;5.72;;;4.90;;
69937;SDS011;57248;47.320;15.998;2023-04-20T08:01:43;6.20;;;5.10;;
69937;SDS011;57248;47.320;15.998;2023-04-20T08:04:22;5.32;;;4.65;;
69937;SDS011;57248;47.320;15.998;2023-04-20T08:06:47;7.07;;;5.17;;
69937;SDS011;57248;47.320;15.998;2023-04-20T08:09:20;6.10;;;4.40;;
69937;SDS011;57248;47.320;15.998;2023-04-20T08:11:52;6.07;;;5.13;;
69937;SDS011;57248;47.320;15.998;2023-04-20T08:14:24;5.82;;;4.70;;
69937;SDS011;57248;47.320;15.998;2023-04-20T08:16:56;5.97;;;5.38;;
69937;SDS011;57248;47.320;15.998;2023-04-20T08:19:29;6.72;;;5.05;;
69937;SDS011;57248;47.320;15.998;2023-04-20T08:22:01;6.00;;;5.30;;
69937;SDS011;57248;47.320;15.998;2023-04-20T08:24:34;5.93;;;5.32;;
69937;SDS011;57248;47.320;15.998;2023-04-20T08:27:07;7.38;;;6.57;;
69937;SDS011;57248;47.320;15.998;2023-04-20T08:29:39;7.07;;;5.43;;
69937;SDS011;57248;47.320;15.998;2023-04-20T08:32:11;6.47;;;4.80;;
69937;SDS011;57248;47.320;15.998;2023-04-20T08:34:44;6.13;;;4.70;;
69937;SDS011;57248;47.320;15.998;2023-04-20T08:37:16;5.88;;;4.90;;
69937;SDS011;57248;47.320;15.998;2023-04-20T08:39:49;6.13;;;5.53;;
69937;SDS011;57248;47.320;15.998;2023-04-20T08:42:21;7.10;;;6.40;;
69937;SDS011;57248;47.320;15.998;2023-04-20T08:44:54;7.00;;;6.40;;
69937;SDS011;57248;47.320;15.998;2023-04-20T08:47:26;7.63;;;6.97;;
69937;SDS011;57248;47.320;15.998;2023-04-20T08:49:58;7.40;;;6.70;;
69937;SDS011;57248;47.320;15.998;2023-04-20T08:52:31;7.70;;;6.20;;
69937;SDS011;57248;47.320;15.998;2023-04-20T08:55:06;7.45;;;6.75;;
69937;SDS011;57248;47.320;15.998;2023-04-20T08:57:40;6.78;;;6.18;;
69937;SDS011;57248;47.320;15.998;2023-04-20T09:00:13;7.13;;;6.10;;
69937;SDS011;57248;47.320;15.998;2023-04-20T09:02:54;6.18;;;5.50;;
69937;SDS011;57248;47.320;15.998;2023-04-20T09:05:29;7.55;;;6.13;;
69937;SDS011;57248;47.320;15.998;2023-04-20T09:08:02;7.05;;;6.35;;
69937;SDS011;57248;47.320;15.998;2023-04-20T09:10:37;6.93;;;6.30;;
69937;SDS011;57248;47.320;15.998;2023-04-20T09:13:21;6.57;;;5.67;;
69937;SDS011;57248;47.320;15.998;2023-04-20T09:15:53;7.18;;;6.43;;
69937;SDS011;57248;47.320;15.998;2023-04-20T09:18:25;7.43;;;6.22;;
69937;SDS011;57248;47.320;15.998;2023-04-20T09:21:05;6.63;;;5.60;;
69937;SDS011;57248;47.320;15.998;2023-04-20T09:23:39;7.47;;;6.78;;
69937;SDS011;57248;47.320;15.998;2023-04-20T09:26:04;12.40;;;8.97;;
69937;SDS011;57248;47.320;15.998;2023-04-20T09:28:36;7.40;;;6.60;;
69937;SDS011;57248;47.320;15.998;2023-04-20T09:31:16;9.60;;;8.70;;
69937;SDS011;57248;47.320;15.998;2023-04-20T09:33:59;9.82;;;9.02;;
69937;SDS011;57248;47.320;15.998;2023-04-20T09:36:38;8.93;;;8.13;;
69937;SDS011;57248;47.320;15.998;2023-04-20T09:39:12;8.97;;;8.07;;
69937;SDS011;57248;47.320;15.998;2023-04-20T09:41:46;9.48;;;8.60;;
69937;SDS011;57248;47.320;15.998;2023-04-20T09:44:19;7.80;;;7.10;;
69937;SDS011;57248;47.320;15.998;2023-04-20T09:46:51;7.13;;;6.43;;
69937;SDS011;57248;47.320;15.998;2023-04-20T09:49:17;7.93;;;7.23;;
69937;SDS011;57248;47.320;15.998;2023-04-20T09:51:49;9.13;;;7.03;;
69937;SDS011;57248;47.320;15.998;2023-04-20T09:54:21;8.60;;;6.88;;
69937;SDS011;57248;47.320;15.998;2023-04-20T09:56:55;8.68;;;7.88;;
69937;SDS011;57248;47.320;15.998;2023-04-20T09:59:30;7.47;;;6.77;;
69937;SDS011;57248;47.320;15.998;2023-04-20T10:02:06;8.43;;;7.55;;
69937;SDS011;57248;47.320;15.998;2023-04-20T10:04:56;7.78;;;7.07;;
69937;SDS011;57248;47.320;15.998;2023-04-20T10:07:30;9.07;;;8.18;;
69937;SDS011;57248;47.320;15.998;2023-04-20T10:10:07;9.75;;;8.90;;
69937;SDS011;57248;47.320;15.998;2023-04-20T10:12:58;8.60;;;7.90;;
69937;SDS011;57248;47.320;15.998;2023-04-20T10:15:37;8.43;;;7.75;;
69937;SDS011;57248;47.320;15.998;2023-04-20T10:18:14;8.00;;;7.30;;
69937;SDS011;57248;47.320;15.998;2023-04-20T10:20:48;7.43;;;6.80;;
69937;SDS011;57248;47.320;15.998;2023-04-20T10:23:21;6.88;;;6.28;;
69937;SDS011;57248;47.320;15.998;2023-04-20T10:25:54;8.03;;;7.23;;
69937;SDS011;57248;47.320;15.998;2023-04-20T10:28:37;8.52;;;7.78;;
69937;SDS011;57248;47.320;15.998;2023-04-20T10:31:13;7.65;;;7.05;;
69937;SDS011;57248;47.320;15.998;2023-04-20T10:33:48;7.97;;;7.28;;
69937;SDS011;57248;47.320;15.998;2023-04-20T10:36:22;6.75;;;6.15;;
69937;SDS011;57248;47.320;15.998;2023-04-20T10:38:56;6.97;;;6.37;;
69937;SDS011;57248;47.320;15.998;2023-04-20T10:41:28;6.70;;;6.10;;
69937;SDS011;57248;47.320;15.998;2023-04-20T10:44:08;7.10;;;6.40;;
69937;SDS011;57248;47.320;15.998;2023-04-20T10:46:40;7.07;;;6.43;;
69937;SDS011;57248;47.320;15.998;2023-04-20T10:49:12;7.53;;;6.75;;
69937;SDS011;57248;47.320;15.998;2023-04-20T10:51:47;6.80;;;6.10;;
69937;SDS011;57248;47.320;15.998;2023-04-20T10:54:21;7.65;;;6.63;;
69937;SDS011;57248;47.320;15.998;2023-04-20T10:56:53;6.78;;;6.13;;
69937;SDS011;57248;47.320;15.998;2023-04-20T10:59:27;8.35;;;6.65;;
69937;SDS011;57248;47.320;15.998;2023-04-20T11:02:06;7.25;;;6.00;;
69937;SDS011;57248;47.320;15.998;2023-04-20T11:04:38;6.80;;;6.17;;
69937;SDS011;57248;47.320;15.998;2023-04-20T11:07:10;7.28;;;6.45;;
69937;SDS011;57248;47.320;15.998;2023-04-20T11:09:51;7.32;;;6.63;;
69937;SDS011;57248;47.320;15.998;2023-04-20T11:12:24;7.88;;;7.18;;
69937;SDS011;57248;47.320;15.998;2023-04-20T11:14:56;8.55;;;7.85;;
69937;SDS011;57248;47.320;15.998;2023-04-20T11:20:09;16.08;;;10.50;;
69937;SDS011;57248;47.320;15.998;2023-04-20T11:22:43;11.35;;;9.32;;
69937;SDS011;57248;47.320;15.998;2023-04-20T11:25:15;8.15;;;7.45;;
69937;SDS011;57248;47.320;15.998;2023-04-20T11:27:49;7.30;;;6.70;;
69937;SDS011;57248;47.320;15.998;2023-04-20T11:30:21;9.00;;;7.37;;
69937;SDS011;57248;47.320;15.998;2023-04-20T11:32:53;7.43;;;6.72;;
69937;SDS011;57248;47.320;15.998;2023-04-20T11:35:26;7.25;;;6.65;;
69937;SDS011;57248;47.320;15.998;2023-04-20T11:38:13;7.18;;;6.47;;
69937;SDS011;57248;47.320;15.998;2023-04-20T11:40:45;7.47;;;6.82;;
69937;SDS011;57248;47.320;15.998;2023-04-20T11:43:18;7.93;;;7.23;;
69937;SDS011;57248;47.320;15.998;2023-04-20T11:45:50;8.57;;;7.88;;
69937;SDS011;57248;47.320;15.998;2023-04-20T11:48:23;6.03;;;5.43;;
69937;SDS011;57248;47.320;15.998;2023-04-20T11:50:56;6.65;;;5.95;;
69937;SDS011;57248;47.320;15.998;2023-04-20T11:53:28;6.38;;;5.78;;
69937;SDS011;57248;47.320;15.998;2023-04-20T11:56:00;6.87;;;6.27;;
69937;SDS011;57248;47.320;15.998;2023-04-20T11:58:32;6.82;;;6.22;;
69937;SDS011;57248;47.320;15.998;2023-04-20T12:01:04;7.00;;;6.40;;
69937;SDS011;57248;47.320;15.998;2023-04-20T12:03:50;7.13;;;6.45;;
69937;SDS011;57248;47.320;15.998;2023-04-20T12:06:22;6.40;;;5.80;;
69937;SDS011;57248;47.320;15.998;2023-04-20T12:08:54;7.33;;;6.73;;
69937;SDS011;57248;47.320;15.998;2023-04-20T12:11:28;7.20;;;6.60;;
69937;SDS011;57248;47.320;15.998;2023-04-20T12:13:53;4.65;;;4.00;;
69937;SDS011;57248;47.320;15.998;2023-04-20T12:16:25;4.60;;;3.53;;
69937;SDS011;57248;47.320;15.998;2023-04-20T12:18:57;4.65;;;3.17;;
69937;SDS011;57248;47.320;15.998;2023-04-20T12:21:29;5.80;;;3.57;;
69937;SDS011;57248;47.320;15.998;2023-04-20T12:24:02;4.90;;;4.40;;
69937;SDS011;57248;47.320;15.998;2023-04-20T12:26:34;5.03;;;3.42;;
69937;SDS011;57248;47.320;15.998;2023-04-20T12:29:07;4.97;;;3.17;;
69937;SDS011;57248;47.320;15.998;2023-04-20T12:31:39;5.85;;;2.95;;
69937;SDS011;57248;47.320;15.998;2023-04-20T12:34:11;4.90;;;3.10;;
69937;SDS011;57248;47.320;15.998;2023-04-20T12:36:43;3.90;;;2.85;;
69937;SDS011;57248;47.320;15.998;2023-04-20T12:39:15;4.32;;;3.00;;
69937;SDS011;57248;47.320;15.998;2023-04-20T12:41:48;5.50;;;3.28;;
69937;SDS011;57248;47.320;15.998;2023-04-20T12:44:20;5.35;;;3.28;;
69937;SDS011;57248;47.320;15.998;2023-04-20T12:46:52;5.30;;;3.53;;
69937;SDS011;57248;47.320;15.998;2023-04-20T12:49:24;6.30;;;2.65;;
69937;SDS011;57248;47.320;15.998;2023-04-20T12:51:50;4.77;;;3.23;;
69937;SDS011;57248;47.320;15.998;2023-04-20T12:54:21;4.87;;;3.73;;
69937;SDS011;57248;47.320;15.998;2023-04-20T12:56:47;6.22;;;4.53;;
69937;SDS011;57248;47.320;15.998;2023-04-20T12:59:18;5.30;;;4.53;;
69937;SDS011;57248;47.320;15.998;2023-04-20T13:01:50;5.13;;;3.90;;
69937;SDS011;57248;47.320;15.998;2023-04-20T13:04:22;5.68;;;3.65;;
69937;SDS011;57248;47.320;15.998;2023-04-20T13:07:02;5.05;;;4.18;;
69937;SDS011;57248;47.320;15.998;2023-04-20T13:09:34;6.78;;;5.50;;
69937;SDS011;57248;47.320;15.998;2023-04-20T13:12:08;5.97;;;5.20;;
69937;SDS011;57248;47.320;15.998;2023-04-20T13:14:40;7.05;;;5.43;;
69937;SDS011;57248;47.320;15.998;2023-04-20T13:17:12;6.40;;;5.80;;
69937;SDS011;57248;47.320;15.998;2023-04-20T13:19:45;7.43;;;6.72;;
69937;SDS011;57248;47.320;15.998;2023-04-20T13:22:17;6.85;;;6.25;;
69937;SDS011;57248;47.320;15.998;2023-04-20T13:24:43;6.97;;;5.83;;
69937;SDS011;57248;47.320;15.998;2023-04-20T13:27:14;7.30;;;6.70;;
69937;SDS011;57248;47.320;15.998;2023-04-20T13:29:46;5.50;;;4.43;;
69937;SDS011;57248;47.320;15.998;2023-04-20T13:32:20;8.30;;;5.73;;
69937;SDS011;57248;47.320;15.998;2023-04-20T13:34:52;6.60;;;6.00;;
69937;SDS011;57248;47.320;15.998;2023-04-20T13:37:18;5.93;;;5.33;;
69937;SDS011;57248;47.320;15.998;2023-04-20T13:39:50;6.68;;;6.07;;
69937;SDS011;57248;47.320;15.998;2023-04-20T13:42:23;4.97;;;3.70;;
69937;SDS011;57248;47.320;15.998;2023-04-20T13:44:55;6.35;;;5.63;;
69937;SDS011;57248;47.320;15.998;2023-04-20T13:47:21;7.97;;;6.83;;
69937;SDS011;57248;47.320;15.998;2023-04-20T13:49:54;5.80;;;4.93;;
69937;SDS011;57248;47.320;15.998;2023-04-20T13:52:26;7.05;;;6.18;;
69937;SDS011;57248;47.320;15.998;2023-04-20T13:54:59;5.63;;;5.03;;
69937;SDS011;57248;47.320;15.998;2023-04-20T13:57:25;6.15;;;4.72;;
69937;SDS011;57248;47.320;15.998;2023-04-20T13:59:57;5.68;;;5.18;;
69937;SDS011;57248;47.320;15.998;2023-04-20T14:02:38;7.00;;;5.47;;
69937;SDS011;57248;47.320;15.998;2023-04-20T14:05:10;6.40;;;5.80;;
69937;SDS011;57248;47.320;15.998;2023-04-20T14:07:43;6.45;;;5.75;;
69937;SDS011;57248;47.320;15.998;2023-04-20T14:10:15;6.15;;;5.55;;
69937;SDS011;57248;47.320;15.998;2023-04-20T14:12:47;8.60;;;5.93;;
69937;SDS011;57248;47.320;15.998;2023-04-20T14:15:21;8.10;;;5.20;;
69937;SDS011;57248;47.320;15.998;2023-04-20T14:17:53;11.55;;;8.48;;
69937;SDS011;57248;47.320;15.998;2023-04-20T14:20:26;9.82;;;6.15;;
69937;SDS011;57248;47.320;15.998;2023-04-20T14:22:59;5.40;;;4.90;;
69937;SDS011;57248;47.320;15.998;2023-04-20T14:25:30;5.53;;;4.72;;
69937;SDS011;57248;47.320;15.998;2023-04-20T14:28:03;5.27;;;3.80;;
69937;SDS011;57248;47.320;15.998;2023-04-20T14:30:35;6.38;;;5.57;;
69937;SDS011;57248;47.320;15.998;2023-04-20T14:33:07;6.00;;;5.30;;
69937;SDS011;57248;47.320;15.998;2023-04-20T14:35:39;6.35;;;5.70;;
69937;SDS011;57248;47.320;15.998;2023-04-20T14:38:11;6.60;;;5.20;;
69937;SDS011;57248;47.320;15.998;2023-04-20T14:40:43;6.83;;;6.23;;
69937;SDS011;57248;47.320;15.998;2023-04-20T14:43:15;6.55;;;5.28;;
69937;SDS011;57248;47.320;15.998;2023-04-20T14:45:49;6.32;;;4.75;;
69937;SDS011;57248;47.320;15.998;2023-04-20T14:48:21;6.22;;;5.60;;
69937;SDS011;57248;47.320;15.998;2023-04-20T14:50:55;4.85;;;3.70;;
69937;SDS011;57248;47.320;15.998;2023-04-20T14:53:28;6.93;;;3.10;;
69937;SDS011;57248;47.320;15.998;2023-04-20T14:56:04;5.00;;;3.08;;
69937;SDS011;57248;47.320;15.998;2023-04-20T14:58:36;6.18;;;3.08;;
69937;SDS011;57248;47.320;15.998;2023-04-20T15:01:08;6.22;;;3.20;;
69937;SDS011;57248;47.320;15.998;2023-04-20T15:03:54;7.07;;;4.03;;
69937;SDS011;57248;47.320;15.998;2023-04-20T15:06:26;5.03;;;2.50;;
69937;SDS011;57248;47.320;15.998;2023-04-20T15:08:58;6.88;;;3.25;;
69937;SDS011;57248;47.320;15.998;2023-04-20T15:11:30;7.45;;;4.30;;